Ana Sayfa
METAR-TAF:

METAR-TAF

Havaalanları :

Mehrabad Havalimanı

Tahran, İran

Enlem: 35-41N, Boylam: 051-21E, yükseklik: 1204 m

Güncel hava durumu gözlemi

Rapor saat 02:30 UTC de 34 dakika önce yapıldı.
Sakin rüzgar
Sıcaklık 6°C
Nem 52%
Basınç 1018 hPa
Görüş mesafesi 10 km veya daha fazla
1500 m altında bulut yok ve kümülonimbus yok

METAR: OIII 110230Z 00000KT CAVOK 06/M03 Q1018 A3007

Saat: 06:34 (03:04 UTC)

Tahmin

Rapor saat 23:00 UTC de 4 saat ve 4 dakika önce yapıldı.
Ayın 11'si saat 00 UTC'den ayın 12'si saat 06 UTC'ye kadar geçerli Tahmin
Rüzgar kuzeydan 8 kt
Görüş mesafesi: 7000 m
Olasılık 40%
ayın 11'si saat 01 UTC'den ayın 11'si saat 08 UTC'ye kadar
Görüş mesafesi: 4000 m
Toz Pusu
Olasılık 40%
ayın 12'si saat 01 UTC'den ayın 12'si saat 08 UTC'ye kadar
Görüş mesafesi: 4000 m
Toz Pusu

TAF: OIII 102300Z 1100/1206 36004MPS 7000 NSC PROB40 1101/1108 4000 HZ PROB40 1201/1208 4000 HZ

4.000'den fazla havaalanı için hava durumu gözlemleri ve tahminleri (METAR ve TAF raporları).

Kullanılabilir istasyonlar harita üzerinde sarı ve kırmızı noktalarla gösterilir.

İstasyonun adını görmek için fareyi noktanın üzerinde gezdirin.

Sonrasında hava gözlem ve tahminlerini görmek için tıklayın.

Haritayı değiştirmek için: yaklaştırmak için siyah artı işaretli yeşil düğmeye ve uzaklaştırmak için de eksi işaretli düğmeye hızla tıklayın; bitişik haritalar için yeşil okları kullanın.


METAR-TAF: